sensor_id;sensor_type;location;lat;lon;timestamp;P1;durP1;ratioP1;P2;durP2;ratioP2
7901;SDS011;3996;49.674;10.716;2024-03-02T00:01:06;21.60;;;14.30;;
7901;SDS011;3996;49.674;10.716;2024-03-02T00:03:32;20.23;;;14.40;;
7901;SDS011;3996;49.674;10.716;2024-03-02T00:05:58;19.50;;;13.50;;
7901;SDS011;3996;49.674;10.716;2024-03-02T00:08:24;23.17;;;14.17;;
7901;SDS011;3996;49.674;10.716;2024-03-02T00:10:59;19.77;;;14.07;;
7901;SDS011;3996;49.674;10.716;2024-03-02T00:13:25;21.20;;;14.70;;
7901;SDS011;3996;49.674;10.716;2024-03-02T00:15:55;22.27;;;14.27;;
7901;SDS011;3996;49.674;10.716;2024-03-02T00:18:31;19.57;;;14.50;;
7901;SDS011;3996;49.674;10.716;2024-03-02T00:20:59;17.63;;;12.97;;
7901;SDS011;3996;49.674;10.716;2024-03-02T00:23:32;20.73;;;14.77;;
7901;SDS011;3996;49.674;10.716;2024-03-02T00:25:58;21.50;;;14.03;;
7901;SDS011;3996;49.674;10.716;2024-03-02T00:33:41;23.17;;;14.77;;
7901;SDS011;3996;49.674;10.716;2024-03-02T00:36:08;20.17;;;14.07;;
7901;SDS011;3996;49.674;10.716;2024-03-02T00:38:44;21.30;;;14.07;;
7901;SDS011;3996;49.674;10.716;2024-03-02T00:41:15;19.93;;;13.93;;
7901;SDS011;3996;49.674;10.716;2024-03-02T00:46:16;20.23;;;14.00;;
7901;SDS011;3996;49.674;10.716;2024-03-02T00:48:53;23.83;;;14.27;;
7901;SDS011;3996;49.674;10.716;2024-03-02T00:51:20;21.60;;;14.20;;
7901;SDS011;3996;49.674;10.716;2024-03-02T00:53:48;20.43;;;14.90;;
7901;SDS011;3996;49.674;10.716;2024-03-02T00:56:14;22.23;;;13.80;;
7901;SDS011;3996;49.674;10.716;2024-03-02T00:58:39;21.10;;;14.30;;
7901;SDS011;3996;49.674;10.716;2024-03-02T01:01:05;20.47;;;13.77;;
7901;SDS011;3996;49.674;10.716;2024-03-02T01:03:32;20.40;;;13.97;;
7901;SDS011;3996;49.674;10.716;2024-03-02T01:05:58;21.67;;;14.33;;
7901;SDS011;3996;49.674;10.716;2024-03-02T01:08:24;21.37;;;14.23;;
7901;SDS011;3996;49.674;10.716;2024-03-02T01:10:51;20.77;;;14.60;;
7901;SDS011;3996;49.674;10.716;2024-03-02T01:13:16;23.07;;;14.77;;
7901;SDS011;3996;49.674;10.716;2024-03-02T01:15:42;24.00;;;14.93;;
7901;SDS011;3996;49.674;10.716;2024-03-02T01:18:07;21.93;;;14.50;;
7901;SDS011;3996;49.674;10.716;2024-03-02T01:20:33;24.03;;;14.77;;
7901;SDS011;3996;49.674;10.716;2024-03-02T01:22:59;20.63;;;14.13;;
7901;SDS011;3996;49.674;10.716;2024-03-02T01:25:24;22.47;;;14.67;;
7901;SDS011;3996;49.674;10.716;2024-03-02T01:27:50;22.43;;;14.30;;
7901;SDS011;3996;49.674;10.716;2024-03-02T01:30:16;21.57;;;14.40;;
7901;SDS011;3996;49.674;10.716;2024-03-02T01:32:41;21.30;;;14.10;;
7901;SDS011;3996;49.674;10.716;2024-03-02T01:35:07;18.87;;;13.83;;
7901;SDS011;3996;49.674;10.716;2024-03-02T01:37:33;21.10;;;14.43;;
7901;SDS011;3996;49.674;10.716;2024-03-02T01:39:58;21.67;;;14.10;;
7901;SDS011;3996;49.674;10.716;2024-03-02T01:42:24;20.53;;;13.43;;
7901;SDS011;3996;49.674;10.716;2024-03-02T01:44:50;21.13;;;14.07;;
7901;SDS011;3996;49.674;10.716;2024-03-02T01:47:17;25.27;;;15.27;;
7901;SDS011;3996;49.674;10.716;2024-03-02T01:49:43;20.60;;;14.30;;
7901;SDS011;3996;49.674;10.716;2024-03-02T01:52:08;23.73;;;13.93;;
7901;SDS011;3996;49.674;10.716;2024-03-02T01:54:34;21.37;;;14.07;;
7901;SDS011;3996;49.674;10.716;2024-03-02T01:56:59;20.70;;;14.27;;
7901;SDS011;3996;49.674;10.716;2024-03-02T01:59:25;24.43;;;15.93;;
7901;SDS011;3996;49.674;10.716;2024-03-02T02:01:51;20.77;;;14.43;;
7901;SDS011;3996;49.674;10.716;2024-03-02T02:04:17;23.30;;;14.70;;
7901;SDS011;3996;49.674;10.716;2024-03-02T02:06:46;21.83;;;14.90;;
7901;SDS011;3996;49.674;10.716;2024-03-02T02:09:11;22.07;;;14.47;;
7901;SDS011;3996;49.674;10.716;2024-03-02T02:11:37;20.47;;;15.07;;
7901;SDS011;3996;49.674;10.716;2024-03-02T02:14:03;22.37;;;15.37;;
7901;SDS011;3996;49.674;10.716;2024-03-02T02:16:28;22.60;;;14.63;;
7901;SDS011;3996;49.674;10.716;2024-03-02T02:18:54;21.67;;;14.67;;
7901;SDS011;3996;49.674;10.716;2024-03-02T02:21:22;24.07;;;14.77;;
7901;SDS011;3996;49.674;10.716;2024-03-02T02:23:48;24.10;;;15.03;;
7901;SDS011;3996;49.674;10.716;2024-03-02T02:26:15;21.67;;;15.33;;
7901;SDS011;3996;49.674;10.716;2024-03-02T02:28:40;24.00;;;14.07;;
7901;SDS011;3996;49.674;10.716;2024-03-02T02:31:11;24.43;;;15.80;;
7901;SDS011;3996;49.674;10.716;2024-03-02T02:33:39;22.43;;;15.00;;
7901;SDS011;3996;49.674;10.716;2024-03-02T02:36:05;21.57;;;14.93;;
7901;SDS011;3996;49.674;10.716;2024-03-02T02:38:31;23.53;;;14.97;;
7901;SDS011;3996;49.674;10.716;2024-03-02T02:40:59;25.00;;;15.83;;
7901;SDS011;3996;49.674;10.716;2024-03-02T02:43:25;18.83;;;13.87;;
7901;SDS011;3996;49.674;10.716;2024-03-02T02:45:50;22.13;;;14.87;;
7901;SDS011;3996;49.674;10.716;2024-03-02T02:48:16;21.40;;;14.43;;
7901;SDS011;3996;49.674;10.716;2024-03-02T02:50:41;23.83;;;14.70;;
7901;SDS011;3996;49.674;10.716;2024-03-02T02:53:07;22.43;;;14.67;;
7901;SDS011;3996;49.674;10.716;2024-03-02T02:55:34;23.63;;;14.90;;
7901;SDS011;3996;49.674;10.716;2024-03-02T02:58:05;20.40;;;14.13;;
7901;SDS011;3996;49.674;10.716;2024-03-02T03:00:31;24.30;;;15.57;;
7901;SDS011;3996;49.674;10.716;2024-03-02T03:02:56;21.67;;;14.50;;
7901;SDS011;3996;49.674;10.716;2024-03-02T03:05:22;20.73;;;13.57;;
7901;SDS011;3996;49.674;10.716;2024-03-02T03:07:47;19.30;;;13.63;;
7901;SDS011;3996;49.674;10.716;2024-03-02T03:10:15;19.43;;;14.13;;
7901;SDS011;3996;49.674;10.716;2024-03-02T03:12:41;26.47;;;15.47;;
7901;SDS011;3996;49.674;10.716;2024-03-02T03:15:08;23.67;;;14.40;;
7901;SDS011;3996;49.674;10.716;2024-03-02T03:17:34;23.73;;;14.50;;
7901;SDS011;3996;49.674;10.716;2024-03-02T03:20:00;21.83;;;14.40;;
7901;SDS011;3996;49.674;10.716;2024-03-02T03:22:27;20.67;;;14.40;;
7901;SDS011;3996;49.674;10.716;2024-03-02T03:24:53;24.33;;;14.17;;
7901;SDS011;3996;49.674;10.716;2024-03-02T03:27:19;22.97;;;14.50;;
7901;SDS011;3996;49.674;10.716;2024-03-02T03:29:47;24.67;;;14.47;;
7901;SDS011;3996;49.674;10.716;2024-03-02T03:32:12;20.97;;;14.07;;
7901;SDS011;3996;49.674;10.716;2024-03-02T03:34:38;24.37;;;13.67;;
7901;SDS011;3996;49.674;10.716;2024-03-02T03:37:05;22.63;;;14.07;;
7901;SDS011;3996;49.674;10.716;2024-03-02T03:39:30;20.50;;;13.50;;
7901;SDS011;3996;49.674;10.716;2024-03-02T03:41:56;21.13;;;14.20;;
7901;SDS011;3996;49.674;10.716;2024-03-02T03:44:22;21.40;;;14.53;;
7901;SDS011;3996;49.674;10.716;2024-03-02T03:46:47;24.33;;;14.70;;
7901;SDS011;3996;49.674;10.716;2024-03-02T03:49:13;19.20;;;13.40;;
7901;SDS011;3996;49.674;10.716;2024-03-02T03:51:38;22.17;;;13.60;;
7901;SDS011;3996;49.674;10.716;2024-03-02T03:54:04;20.47;;;13.77;;
7901;SDS011;3996;49.674;10.716;2024-03-02T03:56:29;18.47;;;13.90;;
7901;SDS011;3996;49.674;10.716;2024-03-02T03:58:55;20.20;;;14.23;;
7901;SDS011;3996;49.674;10.716;2024-03-02T04:01:20;20.60;;;13.67;;
7901;SDS011;3996;49.674;10.716;2024-03-02T04:03:47;19.87;;;13.97;;
7901;SDS011;3996;49.674;10.716;2024-03-02T04:06:13;22.87;;;14.00;;
7901;SDS011;3996;49.674;10.716;2024-03-02T04:08:39;21.70;;;13.87;;
7901;SDS011;3996;49.674;10.716;2024-03-02T04:11:06;20.30;;;13.53;;
7901;SDS011;3996;49.674;10.716;2024-03-02T04:13:32;20.87;;;14.27;;
7901;SDS011;3996;49.674;10.716;2024-03-02T04:15:58;22.87;;;14.87;;
7901;SDS011;3996;49.674;10.716;2024-03-02T04:18:23;22.13;;;14.70;;
7901;SDS011;3996;49.674;10.716;2024-03-02T04:20:49;22.63;;;15.73;;
7901;SDS011;3996;49.674;10.716;2024-03-02T04:23:15;21.33;;;14.83;;
7901;SDS011;3996;49.674;10.716;2024-03-02T04:25:40;22.57;;;14.50;;
7901;SDS011;3996;49.674;10.716;2024-03-02T04:28:06;20.67;;;13.93;;
7901;SDS011;3996;49.674;10.716;2024-03-02T04:30:31;22.13;;;14.13;;
7901;SDS011;3996;49.674;10.716;2024-03-02T04:32:57;24.60;;;15.23;;
7901;SDS011;3996;49.674;10.716;2024-03-02T04:35:22;24.33;;;14.97;;
7901;SDS011;3996;49.674;10.716;2024-03-02T04:37:48;22.93;;;14.83;;
7901;SDS011;3996;49.674;10.716;2024-03-02T04:40:14;20.00;;;14.53;;
7901;SDS011;3996;49.674;10.716;2024-03-02T04:42:39;22.10;;;14.50;;
7901;SDS011;3996;49.674;10.716;2024-03-02T04:45:05;23.77;;;14.43;;
7901;SDS011;3996;49.674;10.716;2024-03-02T04:47:32;22.90;;;15.03;;
7901;SDS011;3996;49.674;10.716;2024-03-02T04:49:57;19.73;;;14.27;;
7901;SDS011;3996;49.674;10.716;2024-03-02T04:52:23;24.97;;;15.20;;
7901;SDS011;3996;49.674;10.716;2024-03-02T04:54:49;24.07;;;15.70;;
7901;SDS011;3996;49.674;10.716;2024-03-02T04:57:33;21.80;;;14.63;;
7901;SDS011;3996;49.674;10.716;2024-03-02T04:59:58;20.93;;;14.07;;
7901;SDS011;3996;49.674;10.716;2024-03-02T05:02:24;22.10;;;15.33;;
7901;SDS011;3996;49.674;10.716;2024-03-02T05:04:49;24.90;;;14.80;;
7901;SDS011;3996;49.674;10.716;2024-03-02T05:07:15;23.70;;;15.47;;
7901;SDS011;3996;49.674;10.716;2024-03-02T05:09:41;23.20;;;15.07;;
7901;SDS011;3996;49.674;10.716;2024-03-02T05:12:07;24.97;;;15.87;;
7901;SDS011;3996;49.674;10.716;2024-03-02T05:14:51;25.50;;;15.93;;
7901;SDS011;3996;49.674;10.716;2024-03-02T05:17:16;24.67;;;15.67;;
7901;SDS011;3996;49.674;10.716;2024-03-02T05:19:42;24.43;;;15.30;;
7901;SDS011;3996;49.674;10.716;2024-03-02T05:22:07;24.23;;;16.00;;
7901;SDS011;3996;49.674;10.716;2024-03-02T05:24:33;23.27;;;15.57;;
7901;SDS011;3996;49.674;10.716;2024-03-02T05:26:59;21.60;;;14.70;;
7901;SDS011;3996;49.674;10.716;2024-03-02T05:29:24;19.97;;;13.90;;
7901;SDS011;3996;49.674;10.716;2024-03-02T05:31:50;20.30;;;14.47;;
7901;SDS011;3996;49.674;10.716;2024-03-02T05:34:15;21.67;;;14.77;;
7901;SDS011;3996;49.674;10.716;2024-03-02T05:36:41;20.20;;;14.67;;
7901;SDS011;3996;49.674;10.716;2024-03-02T05:39:06;19.77;;;13.57;;
7901;SDS011;3996;49.674;10.716;2024-03-02T05:41:34;19.40;;;14.10;;
7901;SDS011;3996;49.674;10.716;2024-03-02T05:44:00;21.40;;;14.43;;
7901;SDS011;3996;49.674;10.716;2024-03-02T05:46:26;22.87;;;15.50;;
7901;SDS011;3996;49.674;10.716;2024-03-02T05:48:52;21.60;;;14.97;;
7901;SDS011;3996;49.674;10.716;2024-03-02T05:51:17;20.90;;;14.37;;
7901;SDS011;3996;49.674;10.716;2024-03-02T05:53:43;19.80;;;13.83;;
7901;SDS011;3996;49.674;10.716;2024-03-02T05:56:09;22.20;;;14.73;;
7901;SDS011;3996;49.674;10.716;2024-03-02T05:58:34;23.83;;;14.77;;
7901;SDS011;3996;49.674;10.716;2024-03-02T06:01:18;19.47;;;13.43;;
7901;SDS011;3996;49.674;10.716;2024-03-02T06:03:44;21.27;;;14.23;;
7901;SDS011;3996;49.674;10.716;2024-03-02T06:06:09;24.03;;;15.10;;
7901;SDS011;3996;49.674;10.716;2024-03-02T06:08:35;21.07;;;14.23;;
7901;SDS011;3996;49.674;10.716;2024-03-02T06:11:01;21.17;;;14.23;;
7901;SDS011;3996;49.674;10.716;2024-03-02T06:13:27;20.20;;;14.30;;
7901;SDS011;3996;49.674;10.716;2024-03-02T06:15:52;20.30;;;14.03;;
7901;SDS011;3996;49.674;10.716;2024-03-02T06:18:18;23.20;;;14.07;;
7901;SDS011;3996;49.674;10.716;2024-03-02T06:20:43;22.03;;;14.70;;
7901;SDS011;3996;49.674;10.716;2024-03-02T06:23:09;23.27;;;14.50;;
7901;SDS011;3996;49.674;10.716;2024-03-02T06:25:35;21.87;;;14.77;;
7901;SDS011;3996;49.674;10.716;2024-03-02T06:28:00;20.90;;;14.30;;
7901;SDS011;3996;49.674;10.716;2024-03-02T06:30:26;20.70;;;14.40;;
7901;SDS011;3996;49.674;10.716;2024-03-02T06:32:52;22.30;;;15.00;;
7901;SDS011;3996;49.674;10.716;2024-03-02T06:35:17;20.03;;;13.63;;
7901;SDS011;3996;49.674;10.716;2024-03-02T06:37:43;21.13;;;14.17;;
7901;SDS011;3996;49.674;10.716;2024-03-02T06:40:08;20.43;;;13.87;;
7901;SDS011;3996;49.674;10.716;2024-03-02T06:42:35;19.67;;;14.10;;
7901;SDS011;3996;49.674;10.716;2024-03-02T06:45:01;20.60;;;14.13;;
7901;SDS011;3996;49.674;10.716;2024-03-02T06:47:27;20.23;;;14.17;;
7901;SDS011;3996;49.674;10.716;2024-03-02T06:49:52;21.00;;;14.70;;
7901;SDS011;3996;49.674;10.716;2024-03-02T06:52:18;19.13;;;13.80;;
7901;SDS011;3996;49.674;10.716;2024-03-02T06:54:45;19.00;;;13.47;;
7901;SDS011;3996;49.674;10.716;2024-03-02T06:57:11;18.90;;;14.30;;
7901;SDS011;3996;49.674;10.716;2024-03-02T06:59:37;19.13;;;14.10;;
7901;SDS011;3996;49.674;10.716;2024-03-02T07:02:02;20.47;;;13.70;;
7901;SDS011;3996;49.674;10.716;2024-03-02T07:04:28;16.53;;;12.63;;
7901;SDS011;3996;49.674;10.716;2024-03-02T07:06:53;18.33;;;13.03;;
7901;SDS011;3996;49.674;10.716;2024-03-02T07:09:20;18.43;;;12.93;;
7901;SDS011;3996;49.674;10.716;2024-03-02T07:11:47;16.93;;;12.30;;
7901;SDS011;3996;49.674;10.716;2024-03-02T07:14:13;16.67;;;12.47;;
7901;SDS011;3996;49.674;10.716;2024-03-02T07:16:39;16.97;;;13.03;;
7901;SDS011;3996;49.674;10.716;2024-03-02T07:19:05;17.63;;;12.70;;
7901;SDS011;3996;49.674;10.716;2024-03-02T07:21:31;15.87;;;11.47;;
7901;SDS011;3996;49.674;10.716;2024-03-02T07:23:58;16.27;;;12.13;;
7901;SDS011;3996;49.674;10.716;2024-03-02T07:26:24;16.87;;;12.37;;
7901;SDS011;3996;49.674;10.716;2024-03-02T07:28:50;17.57;;;13.00;;
7901;SDS011;3996;49.674;10.716;2024-03-02T07:31:16;18.60;;;13.00;;
7901;SDS011;3996;49.674;10.716;2024-03-02T07:33:45;19.47;;;13.47;;
7901;SDS011;3996;49.674;10.716;2024-03-02T07:36:13;17.43;;;12.53;;
7901;SDS011;3996;49.674;10.716;2024-03-02T07:38:39;17.30;;;13.10;;
7901;SDS011;3996;49.674;10.716;2024-03-02T07:41:05;18.70;;;12.80;;
7901;SDS011;3996;49.674;10.716;2024-03-02T07:43:32;18.37;;;13.37;;
7901;SDS011;3996;49.674;10.716;2024-03-02T07:45:58;15.90;;;12.47;;
7901;SDS011;3996;49.674;10.716;2024-03-02T07:48:24;15.93;;;12.00;;
7901;SDS011;3996;49.674;10.716;2024-03-02T07:50:50;18.63;;;13.73;;
7901;SDS011;3996;49.674;10.716;2024-03-02T07:53:16;20.10;;;15.10;;
7901;SDS011;3996;49.674;10.716;2024-03-02T07:55:41;17.97;;;12.50;;
7901;SDS011;3996;49.674;10.716;2024-03-02T07:58:07;17.83;;;12.47;;
7901;SDS011;3996;49.674;10.716;2024-03-02T08:00:33;17.43;;;12.83;;
7901;SDS011;3996;49.674;10.716;2024-03-02T08:02:59;19.17;;;12.93;;
7901;SDS011;3996;49.674;10.716;2024-03-02T08:05:25;18.23;;;13.00;;
7901;SDS011;3996;49.674;10.716;2024-03-02T08:07:52;17.03;;;13.07;;
7901;SDS011;3996;49.674;10.716;2024-03-02T08:10:18;18.40;;;13.67;;
7901;SDS011;3996;49.674;10.716;2024-03-02T08:12:44;15.60;;;12.03;;
7901;SDS011;3996;49.674;10.716;2024-03-02T08:15:10;17.07;;;11.90;;
7901;SDS011;3996;49.674;10.716;2024-03-02T08:17:37;15.60;;;11.70;;
7901;SDS011;3996;49.674;10.716;2024-03-02T08:20:05;16.63;;;12.13;;
7901;SDS011;3996;49.674;10.716;2024-03-02T08:22:33;15.37;;;11.57;;
7901;SDS011;3996;49.674;10.716;2024-03-02T08:24:58;14.63;;;10.67;;
7901;SDS011;3996;49.674;10.716;2024-03-02T08:27:24;13.83;;;10.37;;
7901;SDS011;3996;49.674;10.716;2024-03-02T08:29:49;17.33;;;12.80;;
7901;SDS011;3996;49.674;10.716;2024-03-02T08:32:15;15.30;;;12.00;;
7901;SDS011;3996;49.674;10.716;2024-03-02T08:34:42;14.83;;;12.33;;
7901;SDS011;3996;49.674;10.716;2024-03-02T08:37:07;21.17;;;18.73;;
7901;SDS011;3996;49.674;10.716;2024-03-02T08:39:33;15.27;;;12.03;;
7901;SDS011;3996;49.674;10.716;2024-03-02T08:41:59;11.13;;;8.00;;
7901;SDS011;3996;49.674;10.716;2024-03-02T08:44:24;10.77;;;7.87;;
7901;SDS011;3996;49.674;10.716;2024-03-02T08:46:50;9.63;;;7.83;;
7901;SDS011;3996;49.674;10.716;2024-03-02T08:49:15;9.30;;;7.47;;
7901;SDS011;3996;49.674;10.716;2024-03-02T08:51:41;10.40;;;7.93;;
7901;SDS011;3996;49.674;10.716;2024-03-02T08:54:06;13.37;;;7.20;;
7901;SDS011;3996;49.674;10.716;2024-03-02T08:56:32;9.80;;;7.73;;
7901;SDS011;3996;49.674;10.716;2024-03-02T08:58:58;9.73;;;7.77;;
7901;SDS011;3996;49.674;10.716;2024-03-02T09:01:23;9.73;;;7.43;;
7901;SDS011;3996;49.674;10.716;2024-03-02T09:03:49;15.80;;;7.40;;
7901;SDS011;3996;49.674;10.716;2024-03-02T09:06:15;11.67;;;7.70;;
7901;SDS011;3996;49.674;10.716;2024-03-02T09:08:45;9.47;;;7.43;;
7901;SDS011;3996;49.674;10.716;2024-03-02T09:11:11;8.73;;;7.30;;
7901;SDS011;3996;49.674;10.716;2024-03-02T09:13:37;9.47;;;7.40;;
7901;SDS011;3996;49.674;10.716;2024-03-02T09:16:03;8.80;;;7.07;;
7901;SDS011;3996;49.674;10.716;2024-03-02T09:18:30;9.93;;;7.27;;
7901;SDS011;3996;49.674;10.716;2024-03-02T09:20:55;9.67;;;7.33;;
7901;SDS011;3996;49.674;10.716;2024-03-02T09:23:21;9.23;;;7.17;;
7901;SDS011;3996;49.674;10.716;2024-03-02T09:25:47;8.77;;;6.83;;
7901;SDS011;3996;49.674;10.716;2024-03-02T09:28:12;10.40;;;7.43;;
7901;SDS011;3996;49.674;10.716;2024-03-02T09:30:40;8.27;;;7.17;;
7901;SDS011;3996;49.674;10.716;2024-03-02T09:33:05;10.43;;;9.13;;
7901;SDS011;3996;49.674;10.716;2024-03-02T09:35:31;9.07;;;7.07;;
7901;SDS011;3996;49.674;10.716;2024-03-02T09:37:57;11.17;;;8.47;;
7901;SDS011;3996;49.674;10.716;2024-03-02T09:40:22;8.47;;;6.83;;
7901;SDS011;3996;49.674;10.716;2024-03-02T09:42:48;10.83;;;7.47;;
7901;SDS011;3996;49.674;10.716;2024-03-02T09:45:19;9.90;;;8.00;;
7901;SDS011;3996;49.674;10.716;2024-03-02T09:47:47;9.17;;;7.07;;
7901;SDS011;3996;49.674;10.716;2024-03-02T09:50:13;9.27;;;7.10;;
7901;SDS011;3996;49.674;10.716;2024-03-02T09:52:39;8.83;;;7.47;;
7901;SDS011;3996;49.674;10.716;2024-03-02T09:55:07;10.87;;;7.53;;
7901;SDS011;3996;49.674;10.716;2024-03-02T09:57:33;9.73;;;7.73;;
7901;SDS011;3996;49.674;10.716;2024-03-02T09:59:58;8.83;;;6.63;;
7901;SDS011;3996;49.674;10.716;2024-03-02T10:02:24;8.83;;;6.67;;
7901;SDS011;3996;49.674;10.716;2024-03-02T10:04:50;9.47;;;7.33;;
7901;SDS011;3996;49.674;10.716;2024-03-02T10:07:18;9.10;;;7.70;;
7901;SDS011;3996;49.674;10.716;2024-03-02T10:09:45;9.07;;;7.83;;
7901;SDS011;3996;49.674;10.716;2024-03-02T10:12:12;8.90;;;6.70;;
7901;SDS011;3996;49.674;10.716;2024-03-02T10:14:39;12.70;;;10.17;;
7901;SDS011;3996;49.674;10.716;2024-03-02T10:17:06;9.43;;;6.93;;
7901;SDS011;3996;49.674;10.716;2024-03-02T10:19:33;6.90;;;5.77;;
7901;SDS011;3996;49.674;10.716;2024-03-02T10:22:00;7.93;;;6.37;;
7901;SDS011;3996;49.674;10.716;2024-03-02T10:24:27;8.00;;;6.70;;
7901;SDS011;3996;49.674;10.716;2024-03-02T10:27:00;10.07;;;7.63;;
7901;SDS011;3996;49.674;10.716;2024-03-02T10:29:27;8.53;;;6.70;;
7901;SDS011;3996;49.674;10.716;2024-03-02T10:31:54;13.30;;;9.00;;
7901;SDS011;3996;49.674;10.716;2024-03-02T10:34:21;12.43;;;9.47;;
7901;SDS011;3996;49.674;10.716;2024-03-02T10:36:47;12.00;;;8.10;;
7901;SDS011;3996;49.674;10.716;2024-03-02T10:39:13;11.40;;;8.27;;
7901;SDS011;3996;49.674;10.716;2024-03-02T10:41:40;11.13;;;8.30;;
7901;SDS011;3996;49.674;10.716;2024-03-02T10:44:06;10.90;;;8.40;;
7901;SDS011;3996;49.674;10.716;2024-03-02T10:46:33;12.27;;;9.07;;
7901;SDS011;3996;49.674;10.716;2024-03-02T10:49:00;13.73;;;10.50;;
7901;SDS011;3996;49.674;10.716;2024-03-02T10:51:28;14.63;;;10.97;;
7901;SDS011;3996;49.674;10.716;2024-03-02T10:53:56;12.13;;;9.60;;
7901;SDS011;3996;49.674;10.716;2024-03-02T10:56:30;16.03;;;11.53;;
7901;SDS011;3996;49.674;10.716;2024-03-02T10:59:03;10.60;;;7.93;;
7901;SDS011;3996;49.674;10.716;2024-03-02T11:01:37;14.30;;;10.03;;
7901;SDS011;3996;49.674;10.716;2024-03-02T11:04:04;10.93;;;7.80;;
7901;SDS011;3996;49.674;10.716;2024-03-02T11:06:34;21.07;;;14.70;;
7901;SDS011;3996;49.674;10.716;2024-03-02T11:09:05;11.97;;;9.30;;
7901;SDS011;3996;49.674;10.716;2024-03-02T11:11:34;11.43;;;9.83;;
7901;SDS011;3996;49.674;10.716;2024-03-02T11:14:02;9.70;;;7.40;;
7901;SDS011;3996;49.674;10.716;2024-03-02T11:16:34;8.73;;;7.23;;
7901;SDS011;3996;49.674;10.716;2024-03-02T11:19:02;10.00;;;7.83;;
7901;SDS011;3996;49.674;10.716;2024-03-02T11:21:33;8.53;;;7.10;;
7901;SDS011;3996;49.674;10.716;2024-03-02T11:23:59;9.33;;;7.03;;
7901;SDS011;3996;49.674;10.716;2024-03-02T11:26:27;8.80;;;6.77;;
7901;SDS011;3996;49.674;10.716;2024-03-02T11:28:53;8.97;;;6.57;;
7901;SDS011;3996;49.674;10.716;2024-03-02T11:31:20;8.70;;;6.93;;
7901;SDS011;3996;49.674;10.716;2024-03-02T11:33:46;7.20;;;6.23;;
7901;SDS011;3996;49.674;10.716;2024-03-02T11:36:12;7.17;;;6.20;;
7901;SDS011;3996;49.674;10.716;2024-03-02T11:38:37;9.47;;;6.23;;
7901;SDS011;3996;49.674;10.716;2024-03-02T11:41:05;7.20;;;6.07;;
7901;SDS011;3996;49.674;10.716;2024-03-02T11:43:39;7.90;;;6.67;;
7901;SDS011;3996;49.674;10.716;2024-03-02T11:46:06;7.83;;;6.50;;
7901;SDS011;3996;49.674;10.716;2024-03-02T11:48:32;6.90;;;5.80;;
7901;SDS011;3996;49.674;10.716;2024-03-02T11:50:59;6.83;;;5.53;;
7901;SDS011;3996;49.674;10.716;2024-03-02T11:53:26;7.47;;;6.03;;
7901;SDS011;3996;49.674;10.716;2024-03-02T11:55:55;7.47;;;6.10;;
7901;SDS011;3996;49.674;10.716;2024-03-02T11:58:21;9.03;;;7.40;;
7901;SDS011;3996;49.674;10.716;2024-03-02T12:00:55;7.60;;;6.90;;
7901;SDS011;3996;49.674;10.716;2024-03-02T12:03:24;6.57;;;5.90;;
7901;SDS011;3996;49.674;10.716;2024-03-02T12:05:52;6.90;;;6.20;;
7901;SDS011;3996;49.674;10.716;2024-03-02T12:08:18;6.70;;;5.17;;
7901;SDS011;3996;49.674;10.716;2024-03-02T12:10:55;6.03;;;5.43;;
7901;SDS011;3996;49.674;10.716;2024-03-02T12:13:25;5.50;;;4.67;;
7901;SDS011;3996;49.674;10.716;2024-03-02T12:15:53;7.83;;;5.60;;
7901;SDS011;3996;49.674;10.716;2024-03-02T12:18:23;8.87;;;5.40;;
7901;SDS011;3996;49.674;10.716;2024-03-02T12:20:50;6.80;;;5.70;;
7901;SDS011;3996;49.674;10.716;2024-03-02T12:23:18;8.10;;;6.20;;
7901;SDS011;3996;49.674;10.716;2024-03-02T12:25:43;6.77;;;5.90;;
7901;SDS011;3996;49.674;10.716;2024-03-02T12:28:10;7.03;;;5.33;;
7901;SDS011;3996;49.674;10.716;2024-03-02T12:30:36;7.37;;;5.73;;
7901;SDS011;3996;49.674;10.716;2024-03-02T12:33:01;7.93;;;6.37;;
7901;SDS011;3996;49.674;10.716;2024-03-02T12:35:27;8.27;;;6.27;;
7901;SDS011;3996;49.674;10.716;2024-03-02T12:37:53;6.93;;;5.37;;
7901;SDS011;3996;49.674;10.716;2024-03-02T12:40:20;7.33;;;5.50;;
7901;SDS011;3996;49.674;10.716;2024-03-02T12:42:47;6.67;;;5.80;;
7901;SDS011;3996;49.674;10.716;2024-03-02T12:45:15;6.87;;;5.83;;
7901;SDS011;3996;49.674;10.716;2024-03-02T12:47:48;8.93;;;7.77;;
7901;SDS011;3996;49.674;10.716;2024-03-02T12:50:14;9.50;;;7.60;;
7901;SDS011;3996;49.674;10.716;2024-03-02T12:52:40;8.30;;;6.00;;
7901;SDS011;3996;49.674;10.716;2024-03-02T12:55:05;8.80;;;6.07;;
7901;SDS011;3996;49.674;10.716;2024-03-02T12:57:32;7.53;;;6.33;;
7901;SDS011;3996;49.674;10.716;2024-03-02T12:59:59;6.87;;;5.70;;
7901;SDS011;3996;49.674;10.716;2024-03-02T13:02:27;8.13;;;6.20;;
7901;SDS011;3996;49.674;10.716;2024-03-02T13:04:56;7.80;;;6.30;;
7901;SDS011;3996;49.674;10.716;2024-03-02T13:07:23;13.57;;;12.13;;
7901;SDS011;3996;49.674;10.716;2024-03-02T13:09:50;8.70;;;7.80;;
7901;SDS011;3996;49.674;10.716;2024-03-02T13:12:16;9.03;;;7.70;;
7901;SDS011;3996;49.674;10.716;2024-03-02T13:14:43;8.57;;;7.70;;
7901;SDS011;3996;49.674;10.716;2024-03-02T13:17:09;9.20;;;7.33;;
7901;SDS011;3996;49.674;10.716;2024-03-02T13:19:35;8.37;;;7.17;;
7901;SDS011;3996;49.674;10.716;2024-03-02T13:22:01;8.70;;;7.10;;
7901;SDS011;3996;49.674;10.716;2024-03-02T13:24:29;8.83;;;6.93;;
7901;SDS011;3996;49.674;10.716;2024-03-02T13:26:55;10.23;;;7.43;;
7901;SDS011;3996;49.674;10.716;2024-03-02T13:29:23;8.70;;;7.50;;
7901;SDS011;3996;49.674;10.716;2024-03-02T13:31:49;61.87;;;10.60;;
7901;SDS011;3996;49.674;10.716;2024-03-02T13:34:15;16.03;;;8.23;;
7901;SDS011;3996;49.674;10.716;2024-03-02T13:36:40;9.40;;;8.13;;
7901;SDS011;3996;49.674;10.716;2024-03-02T13:39:06;10.03;;;8.13;;
7901;SDS011;3996;49.674;10.716;2024-03-02T13:41:34;9.73;;;8.07;;
7901;SDS011;3996;49.674;10.716;2024-03-02T13:44:00;9.30;;;7.57;;
7901;SDS011;3996;49.674;10.716;2024-03-02T13:46:26;9.93;;;8.40;;
7901;SDS011;3996;49.674;10.716;2024-03-02T13:48:52;9.37;;;7.60;;
7901;SDS011;3996;49.674;10.716;2024-03-02T13:51:19;8.03;;;7.07;;
7901;SDS011;3996;49.674;10.716;2024-03-02T13:53:44;9.88;;;7.15;;
7901;SDS011;3996;49.674;10.716;2024-03-02T13:56:10;9.93;;;7.50;;
7901;SDS011;3996;49.674;10.716;2024-03-02T13:58:36;9.73;;;8.37;;
7901;SDS011;3996;49.674;10.716;2024-03-02T14:01:02;9.63;;;7.53;;
7901;SDS011;3996;49.674;10.716;2024-03-02T14:03:29;9.90;;;7.80;;
7901;SDS011;3996;49.674;10.716;2024-03-02T14:05:55;8.73;;;7.47;;
7901;SDS011;3996;49.674;10.716;2024-03-02T14:08:21;8.50;;;7.40;;
7901;SDS011;3996;49.674;10.716;2024-03-02T14:10:47;9.07;;;6.80;;
7901;SDS011;3996;49.674;10.716;2024-03-02T14:13:12;9.47;;;7.40;;
7901;SDS011;3996;49.674;10.716;2024-03-02T14:15:38;12.87;;;8.03;;
7901;SDS011;3996;49.674;10.716;2024-03-02T14:18:05;13.27;;;9.43;;
7901;SDS011;3996;49.674;10.716;2024-03-02T14:20:31;14.30;;;9.17;;
7901;SDS011;3996;49.674;10.716;2024-03-02T14:22:58;11.47;;;9.43;;
7901;SDS011;3996;49.674;10.716;2024-03-02T14:25:24;11.73;;;9.17;;
7901;SDS011;3996;49.674;10.716;2024-03-02T14:27:50;13.80;;;8.97;;
7901;SDS011;3996;49.674;10.716;2024-03-02T14:30:16;11.37;;;8.83;;
7901;SDS011;3996;49.674;10.716;2024-03-02T14:32:42;11.40;;;9.37;;
7901;SDS011;3996;49.674;10.716;2024-03-02T14:35:07;14.33;;;10.43;;
7901;SDS011;3996;49.674;10.716;2024-03-02T14:37:36;15.00;;;11.53;;
7901;SDS011;3996;49.674;10.716;2024-03-02T14:40:02;23.90;;;15.07;;
7901;SDS011;3996;49.674;10.716;2024-03-02T14:42:31;36.63;;;20.03;;
7901;SDS011;3996;49.674;10.716;2024-03-02T14:44:57;37.63;;;20.27;;
7901;SDS011;3996;49.674;10.716;2024-03-02T14:47:22;44.17;;;22.57;;